createdAt,value
2023-01-25T00:00:37.059Z,-2.00
2023-01-25T00:03:07.448Z,-2.00
2023-01-25T00:05:37.683Z,-1.90
2023-01-25T00:08:08.750Z,-1.90
2023-01-25T00:10:41.162Z,-1.90
2023-01-25T00:13:13.534Z,-1.90
2023-01-25T00:15:45.587Z,-1.90
2023-01-25T00:18:15.972Z,-2.00
2023-01-25T00:20:46.446Z,-2.00
2023-01-25T00:23:16.739Z,-2.00
2023-01-25T00:25:47.345Z,-2.00
2023-01-25T00:28:20.790Z,-2.00
2023-01-25T00:30:52.519Z,-2.00
2023-01-25T00:33:42.204Z,-2.00
2023-01-25T00:36:36.247Z,-2.00
2023-01-25T00:39:06.964Z,-2.00
2023-01-25T00:41:37.289Z,-2.00
2023-01-25T00:44:09.485Z,-2.00
2023-01-25T00:46:40.008Z,-2.00
2023-01-25T00:49:18.462Z,-2.00
2023-01-25T00:51:49.197Z,-2.10
2023-01-25T00:54:20.261Z,-2.20
2023-01-25T00:56:50.539Z,-2.30
2023-01-25T00:59:22.371Z,-2.30
2023-01-25T01:01:53.266Z,-2.40
2023-01-25T01:04:25.657Z,-2.50
2023-01-25T01:06:57.138Z,-2.50
2023-01-25T01:09:27.916Z,-2.50
2023-01-25T01:11:58.472Z,-2.60
2023-01-25T01:14:30.408Z,-2.60
2023-01-25T01:17:00.673Z,-2.80
2023-01-25T01:19:32.708Z,-2.90
2023-01-25T01:22:02.946Z,-2.90
2023-01-25T01:24:33.327Z,-3.00
2023-01-25T01:27:03.577Z,-3.00
2023-01-25T01:29:35.465Z,-3.00
2023-01-25T01:32:05.769Z,-3.10
2023-01-25T01:34:37.558Z,-3.00
2023-01-25T01:37:07.896Z,-3.00
2023-01-25T01:39:41.385Z,-3.10
2023-01-25T01:42:11.604Z,-3.00
2023-01-25T01:44:51.891Z,-2.90
2023-01-25T01:47:28.499Z,-2.90
2023-01-25T01:50:04.684Z,-2.90
2023-01-25T01:52:38.347Z,-3.00
2023-01-25T01:55:16.013Z,-3.00
2023-01-25T01:57:50.057Z,-3.20
2023-01-25T02:00:25.887Z,-3.30
2023-01-25T02:02:57.934Z,-3.30
2023-01-25T02:05:34.195Z,-3.30
2023-01-25T02:08:09.178Z,-3.30
2023-01-25T02:10:40.991Z,-3.30
2023-01-25T02:13:11.903Z,-3.40
2023-01-25T02:15:47.407Z,-3.40
2023-01-25T02:18:18.508Z,-3.50
2023-01-25T02:20:49.879Z,-3.60
2023-01-25T02:23:28.445Z,-3.70
2023-01-25T02:26:02.893Z,-3.80
2023-01-25T02:28:37.530Z,-3.90
2023-01-25T02:31:08.893Z,-4.00
2023-01-25T02:33:39.579Z,-4.10
2023-01-25T02:36:23.248Z,-4.20
2023-01-25T02:38:58.598Z,-4.30
2023-01-25T02:41:35.660Z,-4.40
2023-01-25T02:44:08.974Z,-4.50
2023-01-25T02:46:40.628Z,-4.60
2023-01-25T02:49:12.036Z,-4.80
2023-01-25T02:51:46.324Z,-4.90
2023-01-25T02:54:18.198Z,-5.10
2023-01-25T02:56:51.434Z,-5.20
2023-01-25T02:59:21.708Z,-5.40
2023-01-25T03:01:53.164Z,-5.70
2023-01-25T03:04:23.684Z,-5.90
2023-01-25T03:06:54.157Z,-6.10
2023-01-25T03:09:26.977Z,-6.30
2023-01-25T03:12:00.533Z,-6.50
2023-01-25T03:14:30.806Z,-6.70
2023-01-25T03:17:01.662Z,-6.80
2023-01-25T03:19:32.133Z,-6.90
2023-01-25T03:22:02.712Z,-7.00
2023-01-25T03:24:33.506Z,-6.70
2023-01-25T03:27:15.108Z,-6.70
2023-01-25T03:29:45.577Z,-6.80
2023-01-25T03:32:17.058Z,-6.90
2023-01-25T03:34:47.306Z,-6.80
2023-01-25T03:37:17.698Z,-6.70
2023-01-25T03:39:48.082Z,-6.90
2023-01-25T03:42:24.462Z,-6.90
2023-01-25T03:44:54.846Z,-7.00
2023-01-25T03:47:25.178Z,-7.00
2023-01-25T03:49:57.784Z,-7.00
2023-01-25T03:53:30.565Z,-7.10
2023-01-25T03:56:02.899Z,-7.10
2023-01-25T03:58:34.763Z,-7.20
2023-01-25T04:01:05.482Z,-7.40
2023-01-25T04:03:36.517Z,-7.40
2023-01-25T04:06:07.440Z,-7.50
2023-01-25T04:08:38.136Z,-7.60
2023-01-25T04:11:09.476Z,-7.80
2023-01-25T04:13:41.906Z,-8.00
2023-01-25T04:16:13.871Z,-8.20
2023-01-25T04:18:45.824Z,-8.40
2023-01-25T04:21:16.154Z,-8.40
2023-01-25T04:23:49.598Z,-8.50
2023-01-25T04:26:20.021Z,-8.60
2023-01-25T04:28:51.904Z,-8.60
2023-01-25T04:31:22.243Z,-8.70
2023-01-25T04:33:52.492Z,-8.80
2023-01-25T04:36:22.656Z,-8.80
2023-01-25T04:38:52.907Z,-8.80
2023-01-25T04:41:27.466Z,-8.90
2023-01-25T04:43:59.298Z,-8.90
2023-01-25T04:46:29.571Z,-8.90
2023-01-25T04:48:59.836Z,-9.00
2023-01-25T04:51:30.666Z,-9.00
2023-01-25T04:54:01.029Z,-9.00
2023-01-25T04:56:31.268Z,-9.00
2023-01-25T04:59:03.147Z,-9.10
2023-01-25T05:01:34.068Z,-9.20
2023-01-25T05:04:04.314Z,-9.30
2023-01-25T05:06:34.616Z,-9.30
2023-01-25T05:09:04.906Z,-9.20
2023-01-25T05:11:35.119Z,-9.20
2023-01-25T05:14:07.012Z,-9.10
2023-01-25T05:16:37.311Z,-9.20
2023-01-25T05:19:07.580Z,-9.30
2023-01-25T05:21:57.069Z,-9.40
2023-01-25T05:24:27.650Z,-9.50
2023-01-25T05:27:05.800Z,-9.50
2023-01-25T05:29:38.985Z,-9.60
2023-01-25T05:32:11.506Z,-9.50
2023-01-25T05:34:42.028Z,-9.50
2023-01-25T05:37:13.837Z,-9.50
2023-01-25T05:39:44.112Z,-9.40
2023-01-25T05:42:15.974Z,-9.50
2023-01-25T05:44:48.228Z,-9.50
2023-01-25T05:47:20.173Z,-9.40
2023-01-25T05:49:50.515Z,-9.40
2023-01-25T05:52:21.073Z,-9.30
2023-01-25T05:54:52.049Z,-9.20
2023-01-25T05:57:22.233Z,-9.20
2023-01-25T05:59:54.026Z,-9.20
2023-01-25T06:02:24.413Z,-9.10
2023-01-25T06:04:54.743Z,-9.00
2023-01-25T06:07:24.965Z,-8.80
2023-01-25T06:09:55.228Z,-8.70
2023-01-25T06:12:25.494Z,-8.60
2023-01-25T06:14:57.765Z,-8.50
2023-01-25T06:17:28.318Z,-8.40
2023-01-25T06:19:58.595Z,-8.30
2023-01-25T06:22:28.773Z,-8.30
2023-01-25T06:24:59.056Z,-8.20
2023-01-25T06:27:30.457Z,-8.10
2023-01-25T06:30:02.580Z,-8.20
2023-01-25T06:32:35.475Z,-8.10
2023-01-25T06:35:05.861Z,-8.10
2023-01-25T06:37:36.366Z,-8.10
2023-01-25T06:40:07.131Z,-8.10
2023-01-25T06:42:37.366Z,-8.20
2023-01-25T06:45:11.239Z,-8.10
2023-01-25T06:47:42.205Z,-8.20
2023-01-25T06:50:13.392Z,-8.20
2023-01-25T06:52:43.731Z,-8.20
2023-01-25T06:55:14.699Z,-8.20
2023-01-25T06:57:44.905Z,-8.20
2023-01-25T07:00:18.139Z,-8.30
2023-01-25T07:02:48.410Z,-8.30
2023-01-25T07:05:18.791Z,-8.20
2023-01-25T07:07:49.034Z,-8.20
2023-01-25T07:10:19.367Z,-8.20
2023-01-25T07:12:49.592Z,-8.20
2023-01-25T07:15:21.498Z,-8.20
2023-01-25T07:17:51.694Z,-8.20
2023-01-25T07:20:22.195Z,-8.30
2023-01-25T07:22:52.555Z,-8.30
2023-01-25T07:25:22.839Z,-8.40
2023-01-25T07:27:53.033Z,-8.50
2023-01-25T07:30:25.010Z,-8.50
2023-01-25T07:32:56.246Z,-8.60
2023-01-25T07:35:26.571Z,-8.70
2023-01-25T07:37:58.540Z,-8.80
2023-01-25T07:40:28.941Z,-8.90
2023-01-25T07:42:59.252Z,-9.10
2023-01-25T07:45:32.408Z,-9.10
2023-01-25T07:48:03.365Z,-9.20
2023-01-25T07:50:34.422Z,-9.20
2023-01-25T07:53:04.654Z,-9.30
2023-01-25T07:55:35.075Z,-9.50
2023-01-25T07:58:05.256Z,-9.60
2023-01-25T08:00:37.268Z,-9.60
2023-01-25T08:03:08.229Z,-9.70
2023-01-25T08:05:39.496Z,-9.90
2023-01-25T08:08:10.434Z,-10.10
2023-01-25T08:10:41.722Z,-10.20
2023-01-25T08:13:11.912Z,-10.40
2023-01-25T08:15:43.751Z,-10.50
2023-01-25T08:18:13.941Z,-10.70
2023-01-25T08:20:44.267Z,-10.80
2023-01-25T08:23:14.826Z,-11.00
2023-01-25T08:25:45.087Z,-11.20
2023-01-25T08:28:15.475Z,-11.30
2023-01-25T08:30:56.853Z,-11.40
2023-01-25T08:33:28.209Z,-11.30
2023-01-25T08:35:58.726Z,-11.00
2023-01-25T08:38:29.347Z,-10.90
2023-01-25T08:41:06.670Z,-10.70
2023-01-25T08:43:37.263Z,-10.70
2023-01-25T08:46:09.831Z,-10.70
2023-01-25T08:48:40.322Z,-10.80
2023-01-25T08:51:14.544Z,-10.80
2023-01-25T08:53:45.569Z,-11.00
2023-01-25T08:56:17.236Z,-11.00
2023-01-25T08:58:49.734Z,-11.10
2023-01-25T09:01:22.957Z,-11.20
2023-01-25T09:03:54.020Z,-11.30
2023-01-25T09:06:24.330Z,-11.40
2023-01-25T09:08:54.562Z,-11.50
2023-01-25T09:11:25.693Z,-11.50
2023-01-25T09:13:56.149Z,-11.60
2023-01-25T09:16:31.385Z,-11.70
2023-01-25T09:19:03.207Z,-11.80
2023-01-25T09:21:33.617Z,-11.90
2023-01-25T09:24:08.034Z,-12.00
2023-01-25T09:26:41.672Z,-12.10
2023-01-25T09:29:13.787Z,-12.30
2023-01-25T09:31:45.751Z,-12.30
2023-01-25T09:34:17.241Z,-12.40
2023-01-25T09:36:47.562Z,-12.40
2023-01-25T09:39:17.785Z,-12.50
2023-01-25T09:42:15.694Z,-12.50
2023-01-25T09:45:02.568Z,-12.50
2023-01-25T09:47:44.798Z,-12.50
2023-01-25T09:50:34.546Z,-12.40
2023-01-25T09:53:35.048Z,-12.30
2023-01-25T09:56:11.169Z,-12.40
2023-01-25T09:58:45.452Z,-12.30
2023-01-25T10:01:38.137Z,-12.30
2023-01-25T10:04:17.500Z,-12.20
2023-01-25T10:06:59.675Z,-12.10
2023-01-25T10:09:44.800Z,-12.00
2023-01-25T10:12:21.559Z,-11.80
2023-01-25T10:14:52.528Z,-11.60
2023-01-25T10:17:31.839Z,-11.50
2023-01-25T10:20:26.859Z,-11.40
2023-01-25T10:23:18.044Z,-11.30
2023-01-25T10:25:54.192Z,-11.20
2023-01-25T10:28:39.958Z,-11.20
2023-01-25T10:31:17.577Z,-11.20
2023-01-25T10:33:49.216Z,-11.20
2023-01-25T10:36:26.658Z,-11.20
2023-01-25T10:38:59.993Z,-11.20
2023-01-25T10:41:38.892Z,-11.20
2023-01-25T10:44:22.468Z,-11.10
2023-01-25T10:46:58.891Z,-11.10
2023-01-25T10:49:42.354Z,-11.00
2023-01-25T10:52:20.732Z,-11.00
2023-01-25T10:54:51.976Z,-10.90
2023-01-25T10:57:24.931Z,-10.90
2023-01-25T10:59:57.175Z,-10.80
2023-01-25T11:02:47.976Z,-10.80
2023-01-25T11:05:35.793Z,-10.70
2023-01-25T11:08:26.832Z,-10.70
2023-01-25T11:10:57.350Z,-10.70
2023-01-25T11:13:29.881Z,-10.70
2023-01-25T11:16:30.144Z,-10.60
2023-01-25T11:19:03.403Z,-10.60
2023-01-25T11:21:35.606Z,-10.50
2023-01-25T11:24:20.164Z,-10.40
2023-01-25T11:26:50.667Z,-10.40
2023-01-25T11:29:26.434Z,-10.40
2023-01-25T11:31:59.632Z,-10.40
2023-01-25T11:34:31.477Z,-10.30
2023-01-25T11:37:22.183Z,-10.30
2023-01-25T11:40:01.417Z,-10.20
2023-01-25T11:42:45.574Z,-10.20
2023-01-25T11:45:47.195Z,-10.20
2023-01-25T11:48:54.326Z,-10.10
2023-01-25T11:51:33.449Z,-10.10
2023-01-25T11:54:24.258Z,-10.10
2023-01-25T11:57:01.125Z,-10.10
2023-01-25T11:59:55.485Z,-10.10
2023-01-25T12:03:00.651Z,-10.00
2023-01-25T12:05:46.123Z,-10.00
2023-01-25T12:08:30.494Z,-10.00
2023-01-25T12:11:09.535Z,-10.00
2023-01-25T12:13:54.071Z,-10.00
2023-01-25T12:16:39.193Z,-10.00
2023-01-25T12:19:30.864Z,-10.00
2023-01-25T12:22:23.393Z,-10.00
2023-01-25T12:25:04.585Z,-10.00
2023-01-25T12:27:52.292Z,-10.00
2023-01-25T12:30:27.888Z,-10.00
2023-01-25T12:33:14.425Z,-10.00
2023-01-25T12:35:51.510Z,-10.00
2023-01-25T12:38:28.110Z,-10.00
2023-01-25T12:41:02.360Z,-10.00
2023-01-25T12:43:39.335Z,-10.00
2023-01-25T12:46:18.791Z,-10.00
2023-01-25T12:48:54.002Z,-10.00
2023-01-25T12:51:26.877Z,-9.90
2023-01-25T12:54:23.854Z,-9.90
2023-01-25T12:57:03.387Z,-9.90
2023-01-25T12:59:41.591Z,-9.90
2023-01-25T13:02:27.183Z,-9.90
2023-01-25T13:05:05.454Z,-9.80
2023-01-25T13:07:42.388Z,-9.80
2023-01-25T13:10:22.370Z,-9.70
2023-01-25T13:12:57.072Z,-9.70
2023-01-25T13:15:44.003Z,-9.70
2023-01-25T13:18:42.005Z,-9.60
2023-01-25T13:21:42.514Z,-9.60
2023-01-25T13:24:24.710Z,-9.50
2023-01-25T13:27:04.834Z,-9.50
2023-01-25T13:30:05.319Z,-9.40
2023-01-25T13:33:07.649Z,-9.40
2023-01-25T13:35:45.740Z,-9.40
2023-01-25T13:38:37.178Z,-9.30
2023-01-25T13:41:19.061Z,-9.30
2023-01-25T13:43:54.953Z,-9.20
2023-01-25T13:46:27.058Z,-9.10
2023-01-25T13:49:08.965Z,-9.00
2023-01-25T13:51:43.110Z,-9.00
2023-01-25T13:54:19.267Z,-9.00
2023-01-25T13:56:49.586Z,-8.90
2023-01-25T13:59:30.981Z,-8.90
2023-01-25T14:02:03.652Z,-8.80
2023-01-25T14:04:33.898Z,-8.80
2023-01-25T14:07:10.784Z,-8.70
2023-01-25T14:09:44.226Z,-8.60
2023-01-25T14:12:22.641Z,-8.60
2023-01-25T14:14:54.619Z,-8.40
2023-01-25T14:17:25.797Z,-8.30
2023-01-25T14:19:57.943Z,-8.30
2023-01-25T14:22:29.273Z,-8.20
2023-01-25T14:25:08.258Z,-8.20
2023-01-25T14:27:39.927Z,-8.00
2023-01-25T14:30:20.281Z,-8.10
2023-01-25T14:32:51.660Z,-8.20
2023-01-25T14:35:53.695Z,-8.00
2023-01-25T14:38:28.512Z,-7.90
2023-01-25T14:41:03.482Z,-7.60
2023-01-25T14:43:34.475Z,-7.40
2023-01-25T14:46:24.692Z,-7.60
2023-01-25T14:49:08.424Z,-7.50
2023-01-25T14:51:44.935Z,-7.30
2023-01-25T14:54:20.051Z,-7.20
2023-01-25T14:56:52.260Z,-7.20
2023-01-25T14:59:35.771Z,-7.20
2023-01-25T15:02:22.327Z,-7.10
2023-01-25T15:05:11.039Z,-7.20
2023-01-25T15:07:47.928Z,-7.10
2023-01-25T15:10:22.004Z,-7.00
2023-01-25T15:13:22.038Z,-6.90
2023-01-25T15:15:58.645Z,-7.10
2023-01-25T15:18:47.407Z,-7.20
2023-01-25T15:21:19.025Z,-7.20
2023-01-25T15:23:50.108Z,-6.90
2023-01-25T15:26:24.956Z,-7.10
2023-01-25T15:28:56.766Z,-7.10
2023-01-25T15:31:29.874Z,-7.20
2023-01-25T15:34:02.504Z,-7.10
2023-01-25T15:36:33.815Z,-6.90
2023-01-25T15:39:04.038Z,-6.80
2023-01-25T15:41:34.444Z,-6.80
2023-01-25T15:44:04.679Z,-6.80
2023-01-25T15:46:35.545Z,-6.90
2023-01-25T15:49:08.185Z,-6.80
2023-01-25T15:51:38.440Z,-6.90
2023-01-25T15:54:08.827Z,-7.10
2023-01-25T15:56:39.922Z,-7.10
2023-01-25T15:59:11.362Z,-7.10
2023-01-25T16:01:41.631Z,-7.10
2023-01-25T16:04:14.707Z,-7.20
2023-01-25T16:06:47.144Z,-7.00
2023-01-25T16:09:20.739Z,-7.20
2023-01-25T16:11:53.668Z,-7.60
2023-01-25T16:14:29.529Z,-7.40
2023-01-25T16:17:03.209Z,-7.40
2023-01-25T16:19:35.587Z,-7.50
2023-01-25T16:22:06.085Z,-7.30
2023-01-25T16:24:39.392Z,-7.30
2023-01-25T16:27:15.997Z,-7.20
2023-01-25T16:29:46.259Z,-7.20
2023-01-25T16:32:16.611Z,-7.20
2023-01-25T16:34:48.494Z,-7.10
2023-01-25T16:37:19.306Z,-7.00
2023-01-25T16:39:50.218Z,-6.70
2023-01-25T16:42:22.622Z,-6.50
2023-01-25T16:44:53.122Z,-6.30
2023-01-25T16:47:23.645Z,-6.40
2023-01-25T16:49:55.661Z,-6.70
2023-01-25T16:52:26.692Z,-7.10
2023-01-25T16:54:56.875Z,-7.00
2023-01-25T16:57:27.122Z,-7.00
2023-01-25T16:59:57.312Z,-6.90
2023-01-25T17:02:27.568Z,-6.70
2023-01-25T17:04:59.424Z,-6.90
2023-01-25T17:07:29.716Z,-6.90
2023-01-25T17:10:00.052Z,-6.90
2023-01-25T17:12:30.468Z,-6.60
2023-01-25T17:15:00.871Z,-6.80
2023-01-25T17:17:31.938Z,-7.00
2023-01-25T17:20:04.409Z,-7.10
2023-01-25T17:22:38.165Z,-7.30
2023-01-25T17:25:09.312Z,-7.20
2023-01-25T17:27:40.449Z,-7.20
2023-01-25T17:30:12.189Z,-7.20
2023-01-25T17:32:42.628Z,-7.10
2023-01-25T17:35:14.598Z,-7.00
2023-01-25T17:37:44.856Z,-7.00
2023-01-25T17:40:15.593Z,-6.90
2023-01-25T17:42:45.851Z,-6.80
2023-01-25T17:45:16.061Z,-6.80
2023-01-25T17:47:46.368Z,-7.00
2023-01-25T17:50:18.658Z,-6.80
2023-01-25T17:52:49.383Z,-7.10
2023-01-25T17:55:19.732Z,-7.20
2023-01-25T17:57:51.878Z,-7.10
2023-01-25T18:00:22.759Z,-7.20
2023-01-25T18:02:53.049Z,-7.20
2023-01-25T18:05:25.209Z,-7.40
2023-01-25T18:07:56.188Z,-7.40
2023-01-25T18:10:27.017Z,-7.30
2023-01-25T18:13:04.589Z,-7.20
2023-01-25T18:15:35.593Z,-6.80
2023-01-25T18:18:05.923Z,-6.60
2023-01-25T18:20:37.830Z,-6.10
2023-01-25T18:23:08.281Z,-5.90
2023-01-25T18:25:39.266Z,-5.90
2023-01-25T18:28:09.492Z,-5.80
2023-01-25T18:30:45.474Z,-5.80
2023-01-25T18:33:15.715Z,-5.80
2023-01-25T18:35:49.939Z,-5.60
2023-01-25T18:38:20.529Z,-5.90
2023-01-25T18:40:50.879Z,-5.90
2023-01-25T18:43:21.132Z,-6.00
2023-01-25T18:45:57.612Z,-6.10
2023-01-25T18:48:32.586Z,-6.10
2023-01-25T18:51:10.675Z,-6.30
2023-01-25T18:53:42.955Z,-6.40
2023-01-25T18:56:16.373Z,-6.40
2023-01-25T18:58:47.330Z,-6.90
2023-01-25T19:01:19.234Z,-6.90
2023-01-25T19:03:51.385Z,-7.00
2023-01-25T19:06:23.286Z,-7.00
2023-01-25T19:08:55.075Z,-6.80
2023-01-25T19:11:25.935Z,-6.90
2023-01-25T19:13:57.007Z,-6.90
2023-01-25T19:16:27.385Z,-7.10
2023-01-25T19:18:58.053Z,-7.00
2023-01-25T19:21:30.824Z,-6.90
2023-01-25T19:24:01.288Z,-7.10
2023-01-25T19:26:32.113Z,-7.10
2023-01-25T19:29:02.380Z,-7.10
2023-01-25T19:31:33.321Z,-7.20
2023-01-25T19:34:05.898Z,-7.20
2023-01-25T19:36:39.607Z,-7.20
2023-01-25T19:39:11.003Z,-7.20
2023-01-25T19:41:41.541Z,-7.40
2023-01-25T19:44:14.424Z,-7.40
2023-01-25T19:46:44.798Z,-7.50
2023-01-25T19:49:15.779Z,-7.60
2023-01-25T19:51:53.550Z,-7.70
2023-01-25T19:54:24.915Z,-8.00
2023-01-25T19:56:55.165Z,-8.10
2023-01-25T19:59:28.295Z,-8.20
2023-01-25T20:01:58.714Z,-8.30
2023-01-25T20:04:28.991Z,-8.20
2023-01-25T20:07:00.872Z,-8.20
2023-01-25T20:09:31.401Z,-8.10
2023-01-25T20:12:03.737Z,-8.00
2023-01-25T20:14:34.045Z,-7.90
2023-01-25T20:17:04.376Z,-8.00
2023-01-25T20:19:35.949Z,-8.00
2023-01-25T20:22:07.885Z,-8.00
2023-01-25T20:24:38.729Z,-8.10
2023-01-25T20:27:08.980Z,-8.00
2023-01-25T20:29:40.531Z,-8.00
2023-01-25T20:32:17.096Z,-8.10
2023-01-25T20:34:57.058Z,-8.10
2023-01-25T20:37:28.915Z,-8.00
2023-01-25T20:39:59.133Z,-8.10
2023-01-25T20:42:29.429Z,-8.20
2023-01-25T20:45:00.486Z,-8.20
2023-01-25T20:47:30.757Z,-8.30
2023-01-25T20:50:02.117Z,-8.20
2023-01-25T20:52:34.476Z,-8.20
2023-01-25T20:55:04.871Z,-8.20
2023-01-25T20:57:35.145Z,-8.30
2023-01-25T21:00:06.093Z,-8.40
2023-01-25T21:02:36.325Z,-8.50
2023-01-25T21:05:07.236Z,-8.50
2023-01-25T21:07:39.153Z,-8.60
2023-01-25T21:10:10.511Z,-8.70
2023-01-25T21:12:40.746Z,-8.70
2023-01-25T21:15:12.739Z,-8.80
2023-01-25T21:17:42.982Z,-8.70
2023-01-25T21:20:13.966Z,-8.70
2023-01-25T21:22:45.818Z,-8.80
2023-01-25T21:25:16.218Z,-8.80
2023-01-25T21:27:46.653Z,-8.90
2023-01-25T21:30:17.567Z,-8.90
2023-01-25T21:32:47.799Z,-8.90
2023-01-25T21:35:18.210Z,-9.00
2023-01-25T21:37:50.948Z,-9.00
2023-01-25T21:40:21.517Z,-9.00
2023-01-25T21:42:51.789Z,-9.10
2023-01-25T21:45:39.055Z,-9.20
2023-01-25T21:48:09.488Z,-9.10
2023-01-25T21:50:57.505Z,-9.20
2023-01-25T21:53:29.887Z,-9.20
2023-01-25T21:56:00.263Z,-9.30
2023-01-25T21:58:30.497Z,-9.40
2023-01-25T22:01:04.808Z,-9.40
2023-01-25T22:03:35.108Z,-9.40
2023-01-25T22:06:05.370Z,-9.40
2023-01-25T22:08:37.220Z,-9.40
2023-01-25T22:11:08.995Z,-9.50
2023-01-25T22:13:39.459Z,-9.50
2023-01-25T22:16:11.179Z,-9.60
2023-01-25T22:18:42.851Z,-9.60
2023-01-25T22:21:18.831Z,-9.70
2023-01-25T22:23:51.352Z,-9.70
2023-01-25T22:26:23.522Z,-9.70
2023-01-25T22:28:55.163Z,-9.80
2023-01-25T22:31:27.089Z,-9.80
2023-01-25T22:33:58.709Z,-9.70
2023-01-25T22:36:30.932Z,-9.80
2023-01-25T22:39:02.789Z,-9.80
2023-01-25T22:41:34.661Z,-9.80
2023-01-25T22:44:04.931Z,-9.90
2023-01-25T22:46:35.452Z,-9.80
2023-01-25T22:49:06.316Z,-9.80
2023-01-25T22:51:36.648Z,-9.80
2023-01-25T22:54:08.694Z,-9.90
2023-01-25T22:56:38.915Z,-10.00
2023-01-25T22:59:09.106Z,-10.00
2023-01-25T23:01:42.068Z,-10.00
2023-01-25T23:04:12.524Z,-10.00
2023-01-25T23:06:42.831Z,-10.00
2023-01-25T23:09:14.703Z,-10.00
2023-01-25T23:11:45.012Z,-10.00
2023-01-25T23:14:32.373Z,-10.00
2023-01-25T23:17:16.089Z,-10.00
2023-01-25T23:19:46.430Z,-10.00
2023-01-25T23:22:16.720Z,-10.00
2023-01-25T23:24:48.604Z,-9.90
2023-01-25T23:27:18.920Z,-9.90
2023-01-25T23:29:49.756Z,-9.90
2023-01-25T23:32:20.104Z,-10.00
2023-01-25T23:34:53.961Z,-10.00
2023-01-25T23:37:24.908Z,-9.90
2023-01-25T23:39:56.767Z,-9.90
2023-01-25T23:42:27.231Z,-9.90
2023-01-25T23:44:57.439Z,-9.90
2023-01-25T23:47:30.153Z,-9.90
2023-01-25T23:50:01.340Z,-9.90
2023-01-25T23:52:32.400Z,-9.90
2023-01-25T23:55:04.996Z,-9.90
2023-01-25T23:57:35.470Z,-9.90
